createdAt,value
2023-03-26T00:00:41.216Z,76.0420
2023-03-26T00:01:43.439Z,75.1640
2023-03-26T00:02:45.659Z,76.2898
2023-03-26T00:03:47.770Z,75.9239
2023-03-26T00:04:49.935Z,75.6558
2023-03-26T00:05:52.352Z,76.8905
2023-03-26T00:06:54.729Z,76.5166
2023-03-26T00:07:56.906Z,76.3520
2023-03-26T00:08:59.056Z,75.7474
2023-03-26T00:10:01.439Z,75.9536
2023-03-26T00:12:05.660Z,76.1283
2023-03-26T00:13:07.779Z,76.2548
2023-03-26T00:14:09.979Z,74.8051
2023-03-26T00:15:12.068Z,75.8470
2023-03-26T00:16:14.264Z,76.0940
2023-03-26T00:17:16.452Z,76.3043
2023-03-26T00:18:18.612Z,74.8240
2023-03-26T00:19:20.787Z,73.7100
2023-03-26T00:21:25.023Z,75.0512
2023-03-26T00:22:27.232Z,74.3575
2023-03-26T00:23:29.385Z,75.9559
2023-03-26T00:24:31.547Z,76.2779
2023-03-26T00:25:33.730Z,77.6626
2023-03-26T00:27:37.906Z,74.2288
2023-03-26T00:28:40.134Z,77.2734
2023-03-26T00:29:42.240Z,77.7394
2023-03-26T00:30:44.421Z,76.2387
2023-03-26T00:31:46.791Z,75.7616
2023-03-26T00:32:53.327Z,78.3710
2023-03-26T00:33:52.684Z,76.6974
2023-03-26T00:34:54.805Z,77.6838
2023-03-26T00:35:57.126Z,75.2700
2023-03-26T00:36:59.475Z,74.3182
2023-03-26T00:38:01.655Z,74.6208
2023-03-26T00:39:03.813Z,75.2707
2023-03-26T00:40:05.995Z,74.8807
2023-03-26T00:41:08.181Z,73.6311
2023-03-26T00:42:10.390Z,74.6450
2023-03-26T00:43:12.547Z,73.5235
2023-03-26T00:44:14.711Z,74.6379
2023-03-26T00:45:16.885Z,73.7694
2023-03-26T00:46:19.128Z,77.5473
2023-03-26T00:47:21.304Z,79.4781
2023-03-26T00:48:31.576Z,79.2548
2023-03-26T00:49:27.221Z,75.2711
2023-03-26T00:50:29.376Z,76.5890
2023-03-26T00:51:31.574Z,77.6723
2023-03-26T00:52:33.769Z,78.3295
2023-03-26T00:54:38.098Z,78.0221
2023-03-26T00:55:40.296Z,75.6895
2023-03-26T00:56:42.425Z,76.2743
2023-03-26T00:57:44.559Z,78.1368
2023-03-26T00:58:46.697Z,78.6610
2023-03-26T00:59:48.877Z,79.6628
2023-03-26T01:00:50.984Z,79.9523
2023-03-26T01:02:55.270Z,77.7474
2023-03-26T01:04:07.601Z,77.8310
2023-03-26T01:05:01.131Z,76.3689
2023-03-26T01:06:03.325Z,77.3066
2023-03-26T01:07:05.476Z,78.4119
2023-03-26T01:08:07.661Z,79.2044
2023-03-26T01:09:09.827Z,76.9139
2023-03-26T01:11:14.207Z,79.4899
2023-03-26T01:12:16.616Z,79.7372
2023-03-26T01:13:18.753Z,79.4508
2023-03-26T01:14:20.947Z,80.5948
2023-03-26T01:15:23.103Z,79.9137
2023-03-26T01:16:25.306Z,78.0630
2023-03-26T01:17:27.469Z,80.2471
2023-03-26T01:18:29.705Z,78.8171
2023-03-26T01:19:31.838Z,79.7059
2023-03-26T01:20:33.961Z,79.9172
2023-03-26T01:21:36.103Z,81.5413
2023-03-26T01:22:38.275Z,82.5032
2023-03-26T01:23:40.352Z,80.5742
2023-03-26T01:24:42.564Z,80.3854
2023-03-26T01:25:44.703Z,81.5831
2023-03-26T01:26:46.896Z,81.0388
2023-03-26T01:27:49.003Z,81.4328
2023-03-26T01:28:51.223Z,80.9087
2023-03-26T01:29:53.336Z,79.5999
2023-03-26T01:30:55.529Z,80.7978
2023-03-26T01:31:57.664Z,80.6359
2023-03-26T01:32:59.912Z,81.0871
2023-03-26T01:34:02.090Z,82.8735
2023-03-26T01:35:04.268Z,81.3040
2023-03-26T01:36:06.449Z,84.3263
2023-03-26T01:37:08.724Z,82.6980
2023-03-26T01:38:11.067Z,81.8394
2023-03-26T01:39:13.729Z,82.0041
2023-03-26T01:40:15.884Z,81.8309
2023-03-26T01:41:18.114Z,81.4361
2023-03-26T01:42:20.311Z,79.3046
2023-03-26T01:43:22.517Z,81.3015
2023-03-26T01:44:24.691Z,79.8656
2023-03-26T01:45:26.914Z,80.9734
2023-03-26T01:46:29.200Z,81.7221
2023-03-26T01:47:31.362Z,81.5039
2023-03-26T01:48:33.495Z,83.6360
2023-03-26T01:49:35.734Z,84.0843
2023-03-26T01:50:37.927Z,82.1634
2023-03-26T01:51:40.273Z,80.5222
2023-03-26T01:52:42.484Z,83.5140
2023-03-26T01:53:44.665Z,81.8747
2023-03-26T01:54:46.894Z,83.4662
2023-03-26T01:55:49.046Z,81.4156
2023-03-26T01:56:51.297Z,82.1293
2023-03-26T01:57:53.460Z,82.5194
2023-03-26T01:58:55.659Z,82.1238
2023-03-26T01:59:57.882Z,84.3908
2023-03-26T02:01:00.038Z,83.2590
2023-03-26T02:02:02.331Z,84.4230
2023-03-26T02:03:04.564Z,84.4240
2023-03-26T02:04:06.864Z,83.8905
2023-03-26T02:06:11.078Z,84.2951
2023-03-26T02:07:13.267Z,83.8579
2023-03-26T02:11:23.220Z,82.2939
2023-03-26T02:13:27.744Z,80.3671
2023-03-26T02:14:29.949Z,80.0152
2023-03-26T02:15:32.131Z,80.7633
2023-03-26T02:16:34.374Z,81.8777
2023-03-26T02:17:36.623Z,81.5175
2023-03-26T02:18:38.888Z,80.6994
2023-03-26T02:20:43.071Z,83.1563
2023-03-26T02:21:45.252Z,82.4928
2023-03-26T02:22:47.480Z,81.0374
2023-03-26T02:23:49.694Z,82.4473
2023-03-26T02:24:51.878Z,82.9678
2023-03-26T02:25:54.154Z,85.5238
2023-03-26T02:26:56.711Z,84.9099
2023-03-26T02:27:58.919Z,84.7211
2023-03-26T02:29:01.174Z,82.9352
2023-03-26T02:30:03.394Z,84.0876
2023-03-26T02:31:05.632Z,83.2005
2023-03-26T02:32:07.823Z,83.0215
2023-03-26T02:33:10.072Z,84.4288
2023-03-26T02:34:12.256Z,85.6031
2023-03-26T02:35:14.551Z,83.9060
2023-03-26T02:36:16.883Z,84.1145
2023-03-26T02:37:19.139Z,84.1361
2023-03-26T02:38:21.364Z,83.3569
2023-03-26T02:39:23.812Z,85.1950
2023-03-26T02:40:25.989Z,85.2819
2023-03-26T02:41:28.219Z,84.6495
2023-03-26T02:42:30.405Z,83.8563
2023-03-26T02:43:32.603Z,82.3853
2023-03-26T02:45:36.954Z,82.8594
2023-03-26T02:46:39.182Z,81.9503
2023-03-26T02:47:41.425Z,80.9466
2023-03-26T02:48:43.623Z,81.5449
2023-03-26T02:49:45.896Z,80.8879
2023-03-26T02:50:48.052Z,80.7649
2023-03-26T02:51:50.275Z,80.4987
2023-03-26T02:52:52.433Z,79.6967
2023-03-26T02:53:54.667Z,80.5863
2023-03-26T02:54:56.864Z,81.0868
2023-03-26T02:57:01.176Z,80.0805
2023-03-26T02:58:03.390Z,81.0666
2023-03-26T02:59:05.630Z,80.1780
2023-03-26T03:00:07.867Z,81.0722
2023-03-26T03:01:10.090Z,80.1753
2023-03-26T03:02:12.308Z,80.8446
2023-03-26T03:03:14.460Z,81.1220
2023-03-26T03:04:16.731Z,81.2711
2023-03-26T03:05:18.965Z,81.9024
2023-03-26T03:06:21.133Z,80.6687
2023-03-26T03:07:23.396Z,80.3470
2023-03-26T03:08:25.623Z,82.9899
2023-03-26T03:09:27.791Z,81.5956
2023-03-26T03:10:29.940Z,82.1431
2023-03-26T03:11:32.187Z,81.9489
2023-03-26T03:12:34.389Z,82.2641
2023-03-26T03:13:36.568Z,83.6891
2023-03-26T03:14:38.745Z,83.0429
2023-03-26T03:15:40.930Z,82.6959
2023-03-26T03:16:43.158Z,83.6805
2023-03-26T03:17:45.423Z,83.0513
2023-03-26T03:18:47.595Z,84.9695
2023-03-26T03:19:49.750Z,86.3033
2023-03-26T03:20:51.986Z,85.1852
2023-03-26T03:21:54.163Z,86.0129
2023-03-26T03:22:56.466Z,85.9410
2023-03-26T03:24:00.071Z,88.9202
2023-03-26T03:25:02.712Z,86.9982
2023-03-26T03:26:04.941Z,87.8376
2023-03-26T03:27:07.127Z,86.4138
2023-03-26T03:28:09.274Z,86.3420
2023-03-26T03:29:11.503Z,87.5786
2023-03-26T03:30:13.735Z,87.1922
2023-03-26T03:31:15.936Z,86.0026
2023-03-26T03:32:18.132Z,85.9504
2023-03-26T03:33:20.331Z,86.4196
2023-03-26T03:34:22.517Z,87.7566
2023-03-26T03:35:24.805Z,85.9927
2023-03-26T03:36:27.051Z,86.1743
2023-03-26T03:37:29.221Z,86.8817
2023-03-26T03:38:31.422Z,86.8981
2023-03-26T03:39:33.675Z,85.4731
2023-03-26T03:40:35.856Z,84.0937
2023-03-26T03:41:38.069Z,85.8073
2023-03-26T03:42:40.310Z,88.3706
2023-03-26T03:44:44.702Z,89.4580
2023-03-26T03:45:46.956Z,90.1956
2023-03-26T03:46:49.200Z,90.1651
2023-03-26T03:47:51.406Z,90.2778
2023-03-26T03:48:53.580Z,90.6961
2023-03-26T03:49:55.855Z,89.0909
2023-03-26T03:50:58.112Z,90.1489
2023-03-26T03:52:00.370Z,91.1397
2023-03-26T03:53:02.577Z,89.0231
2023-03-26T03:54:04.797Z,88.9967
2023-03-26T03:55:06.994Z,86.9366
2023-03-26T03:56:09.155Z,87.2589
2023-03-26T03:57:11.502Z,88.1022
2023-03-26T03:58:13.666Z,86.2961
2023-03-26T03:59:15.863Z,86.2558
2023-03-26T04:00:18.179Z,85.1007
2023-03-26T04:01:20.350Z,84.5547
2023-03-26T04:02:22.618Z,86.2064
2023-03-26T04:03:33.489Z,85.0513
2023-03-26T04:04:28.516Z,85.1804
2023-03-26T04:05:30.702Z,85.8214
2023-03-26T04:06:32.893Z,86.4472
2023-03-26T04:07:35.063Z,85.7265
2023-03-26T04:08:37.275Z,85.1386
2023-03-26T04:09:39.503Z,84.3514
2023-03-26T04:13:47.857Z,83.7274
2023-03-26T04:14:50.076Z,85.0126
2023-03-26T04:15:52.425Z,88.2066
2023-03-26T04:17:56.878Z,86.2441
2023-03-26T04:18:59.114Z,84.5908
2023-03-26T04:20:01.293Z,87.1389
2023-03-26T04:21:03.500Z,86.0923
2023-03-26T04:22:05.699Z,87.6071
2023-03-26T04:23:07.916Z,85.8405
2023-03-26T04:24:10.122Z,87.2756
2023-03-26T04:25:12.260Z,87.5970
2023-03-26T04:26:14.515Z,87.1797
2023-03-26T04:27:16.653Z,88.1393
2023-03-26T04:28:18.887Z,85.1814
2023-03-26T04:29:21.082Z,86.2824
2023-03-26T04:30:23.285Z,87.0327
2023-03-26T04:31:25.446Z,86.1139
2023-03-26T04:32:27.689Z,83.3514
2023-03-26T04:33:29.837Z,82.6990
2023-03-26T04:35:34.147Z,84.4487
2023-03-26T04:36:36.281Z,85.0466
2023-03-26T04:37:38.485Z,84.6534
2023-03-26T04:38:40.700Z,85.5233
2023-03-26T04:39:42.863Z,84.8911
2023-03-26T04:40:45.101Z,84.6921
2023-03-26T04:41:47.358Z,84.3048
2023-03-26T04:42:49.606Z,83.6008
2023-03-26T04:44:53.842Z,86.6608
2023-03-26T04:45:56.125Z,85.4502
2023-03-26T04:46:58.635Z,83.6382
2023-03-26T04:48:00.881Z,84.2717
2023-03-26T04:49:03.184Z,84.1127
2023-03-26T04:50:05.404Z,85.4044
2023-03-26T04:51:07.658Z,85.3580
2023-03-26T04:52:09.865Z,83.8211
2023-03-26T04:53:12.033Z,84.5341
2023-03-26T04:54:14.264Z,85.3002
2023-03-26T04:56:18.509Z,85.8528
2023-03-26T04:57:20.686Z,84.3364
2023-03-26T04:58:22.873Z,83.9839
2023-03-26T04:59:25.081Z,84.4063
2023-03-26T05:00:27.269Z,84.9090
2023-03-26T05:01:29.533Z,85.4032
2023-03-26T05:02:31.830Z,84.2514
2023-03-26T05:03:34.050Z,85.6257
2023-03-26T05:04:36.274Z,85.9874
2023-03-26T05:05:38.492Z,84.4841
2023-03-26T05:06:40.675Z,84.7873
2023-03-26T05:07:42.906Z,86.8137
2023-03-26T05:08:45.079Z,84.8912
2023-03-26T05:09:47.308Z,86.8948
2023-03-26T05:10:49.460Z,87.9539
2023-03-26T05:12:53.686Z,85.6403
2023-03-26T05:13:55.892Z,85.3749
2023-03-26T05:14:58.099Z,86.8895
2023-03-26T05:16:00.282Z,86.7687
2023-03-26T05:17:02.508Z,86.1310
2023-03-26T05:18:04.722Z,84.3048
2023-03-26T05:21:11.074Z,85.8238
2023-03-26T05:22:13.273Z,85.1595
2023-03-26T05:23:15.518Z,87.6520
2023-03-26T05:24:17.631Z,85.9710
2023-03-26T05:25:19.900Z,85.0838
2023-03-26T05:26:22.148Z,84.5987
2023-03-26T05:27:24.327Z,84.1408
2023-03-26T05:28:26.546Z,85.7799
2023-03-26T05:29:28.799Z,85.5053
2023-03-26T05:30:30.994Z,85.8066
2023-03-26T05:31:33.182Z,87.6367
2023-03-26T05:32:35.392Z,85.8312
2023-03-26T05:33:37.751Z,86.8142
2023-03-26T05:34:40.016Z,87.7321
2023-03-26T05:35:42.281Z,87.3673
2023-03-26T05:36:44.442Z,85.1677
2023-03-26T05:37:46.653Z,83.3501
2023-03-26T05:38:48.819Z,83.7837
2023-03-26T05:39:51.056Z,85.1508
2023-03-26T05:40:53.595Z,87.6686
2023-03-26T05:41:55.994Z,85.8243
2023-03-26T05:44:00.224Z,88.4197
2023-03-26T05:45:02.445Z,88.7754
2023-03-26T05:46:04.647Z,88.5149
2023-03-26T05:47:06.872Z,88.7746
2023-03-26T05:48:09.051Z,90.4050
2023-03-26T05:49:11.266Z,90.5016
2023-03-26T05:50:13.431Z,91.0120
2023-03-26T05:51:15.701Z,92.0811
2023-03-26T05:52:17.939Z,92.0687
2023-03-26T05:54:22.261Z,93.6783
2023-03-26T05:55:24.508Z,92.7850
2023-03-26T05:57:28.892Z,93.1105
2023-03-26T05:58:31.139Z,93.4061
2023-03-26T05:59:33.349Z,92.4768
2023-03-26T06:00:35.509Z,94.1734
2023-03-26T06:01:37.711Z,94.6157
2023-03-26T06:02:39.911Z,94.7287
2023-03-26T06:03:42.168Z,94.3905
2023-03-26T06:04:44.393Z,94.9111
2023-03-26T06:05:46.623Z,95.5065
2023-03-26T06:06:48.787Z,95.9549
2023-03-26T06:07:51.033Z,96.0513
2023-03-26T06:09:01.395Z,95.6794
2023-03-26T06:09:56.867Z,96.1660
2023-03-26T06:10:59.043Z,96.1562
2023-03-26T06:12:01.220Z,96.1432
2023-03-26T06:13:03.490Z,95.9975
2023-03-26T06:14:05.709Z,95.8513
2023-03-26T06:15:07.860Z,96.0526
2023-03-26T06:16:10.134Z,96.1180
2023-03-26T06:17:13.746Z,94.2401
2023-03-26T06:18:15.984Z,94.4384
2023-03-26T06:19:18.122Z,91.9412
2023-03-26T06:20:20.341Z,93.2408
2023-03-26T06:21:22.611Z,92.4001
2023-03-26T06:22:24.839Z,93.0501
2023-03-26T06:23:27.019Z,93.9437
2023-03-26T06:24:29.161Z,94.3284
2023-03-26T06:25:31.355Z,94.2425
2023-03-26T06:26:33.563Z,93.3458
2023-03-26T06:27:35.763Z,91.1888
2023-03-26T06:28:37.935Z,93.5497
2023-03-26T06:29:40.150Z,94.5095
2023-03-26T06:30:42.339Z,92.1909
2023-03-26T06:31:44.563Z,91.4012
2023-03-26T06:32:46.792Z,91.7743
2023-03-26T06:33:48.999Z,93.8488
2023-03-26T06:34:51.234Z,94.6886
2023-03-26T06:35:53.432Z,95.2045
2023-03-26T06:36:55.625Z,95.3152
2023-03-26T06:37:57.803Z,95.7305
2023-03-26T06:40:02.012Z,95.2389
2023-03-26T06:41:04.238Z,95.6199
2023-03-26T06:42:06.452Z,95.2893
2023-03-26T06:43:10.941Z,95.2018
2023-03-26T06:44:09.093Z,95.8944
2023-03-26T06:45:11.312Z,95.5815
2023-03-26T06:46:13.552Z,95.5908
2023-03-26T06:47:15.787Z,94.7178
2023-03-26T06:48:18.019Z,95.9400
2023-03-26T06:49:20.180Z,95.7933
2023-03-26T06:50:22.452Z,96.2438
2023-03-26T06:51:24.642Z,96.0876
2023-03-26T06:52:26.873Z,95.0197
2023-03-26T06:53:29.024Z,95.7318
2023-03-26T06:54:31.288Z,93.7483
2023-03-26T06:55:33.557Z,95.0283
2023-03-26T06:56:35.729Z,95.4318
2023-03-26T06:57:37.964Z,94.8120
2023-03-26T06:58:40.233Z,95.1135
2023-03-26T06:59:42.412Z,95.3590
2023-03-26T07:00:44.731Z,95.7852
2023-03-26T07:01:46.924Z,96.4222
2023-03-26T07:02:49.128Z,95.2676
2023-03-26T07:03:51.333Z,95.6094
2023-03-26T07:04:53.522Z,96.1137
2023-03-26T07:05:55.745Z,96.4785
2023-03-26T07:06:57.970Z,95.3389
2023-03-26T07:08:00.160Z,91.6601
2023-03-26T07:10:04.417Z,88.8300
2023-03-26T07:11:06.681Z,93.5701
2023-03-26T07:12:08.863Z,90.6699
2023-03-26T07:13:11.157Z,88.1206
2023-03-26T07:14:13.383Z,88.7267
2023-03-26T07:15:15.577Z,87.0969
2023-03-26T07:16:17.789Z,86.1368
2023-03-26T07:17:19.962Z,87.2041
2023-03-26T07:18:22.199Z,87.1053
2023-03-26T07:19:24.337Z,84.5192
2023-03-26T07:21:28.608Z,87.2922
2023-03-26T07:22:30.809Z,87.1619
2023-03-26T07:23:33.169Z,87.0786
2023-03-26T07:24:35.373Z,86.4370
2023-03-26T07:25:37.606Z,86.9459
2023-03-26T07:26:39.792Z,86.5509
2023-03-26T07:27:42.021Z,85.8249
2023-03-26T07:28:44.230Z,85.8934
2023-03-26T07:29:47.949Z,86.8616
2023-03-26T07:30:50.088Z,87.1665
2023-03-26T07:31:52.530Z,87.4609
2023-03-26T07:32:54.775Z,87.9589
2023-03-26T07:33:56.957Z,87.6182
2023-03-26T07:34:59.190Z,88.0761
2023-03-26T07:36:01.370Z,89.4835
2023-03-26T07:37:03.637Z,88.9240
2023-03-26T07:38:05.853Z,89.0231
2023-03-26T07:39:08.012Z,88.6610
2023-03-26T07:40:10.261Z,88.0212
2023-03-26T07:42:14.513Z,88.1445
2023-03-26T07:43:16.668Z,87.8631
2023-03-26T07:44:18.877Z,88.7010
2023-03-26T07:45:21.082Z,91.0338
2023-03-26T07:46:23.307Z,89.0550
2023-03-26T07:48:27.654Z,87.1775
2023-03-26T07:49:29.868Z,87.5410
2023-03-26T07:50:32.077Z,88.0522
2023-03-26T07:51:34.272Z,87.3689
2023-03-26T07:52:36.499Z,86.8121
2023-03-26T07:53:38.721Z,87.2315
2023-03-26T07:54:41.026Z,87.6631
2023-03-26T07:55:43.223Z,87.9294
2023-03-26T07:56:45.558Z,87.6392
2023-03-26T07:57:47.771Z,87.1956
2023-03-26T07:58:49.912Z,87.3661
2023-03-26T08:02:58.330Z,90.3307
2023-03-26T08:05:02.756Z,88.4279
2023-03-26T08:06:05.176Z,88.3830
2023-03-26T08:07:07.343Z,88.1248
2023-03-26T08:08:09.558Z,88.4579
2023-03-26T08:09:11.742Z,91.1463
2023-03-26T08:10:13.932Z,90.4938
2023-03-26T08:12:18.130Z,90.7501
2023-03-26T08:13:20.370Z,90.5942
2023-03-26T08:14:22.572Z,90.5462
2023-03-26T08:15:24.750Z,90.1875
2023-03-26T08:17:30.647Z,90.5845
2023-03-26T08:18:29.226Z,90.4619
2023-03-26T08:19:31.453Z,89.7888
2023-03-26T08:20:33.607Z,89.3693
2023-03-26T08:21:35.837Z,89.8277
2023-03-26T08:22:37.959Z,90.1299
2023-03-26T08:23:50.371Z,90.0266
2023-03-26T08:24:43.833Z,89.9708
2023-03-26T08:25:46.061Z,90.8777
2023-03-26T08:26:48.220Z,91.7879
2023-03-26T08:27:50.448Z,91.2810
2023-03-26T08:28:52.581Z,90.6662
2023-03-26T08:29:54.761Z,91.8590
2023-03-26T08:30:57.317Z,92.4383
2023-03-26T08:32:00.024Z,92.0683
2023-03-26T08:34:04.215Z,91.1818
2023-03-26T08:35:06.421Z,91.7094
2023-03-26T08:37:10.696Z,93.2558
2023-03-26T08:38:12.889Z,91.1456
2023-03-26T08:39:15.009Z,90.8776
2023-03-26T08:41:19.229Z,91.4763
2023-03-26T08:43:23.505Z,91.0751
2023-03-26T08:44:25.703Z,90.8867
2023-03-26T08:45:27.976Z,90.5579
2023-03-26T08:46:30.159Z,90.2910
2023-03-26T08:47:32.329Z,90.4577
2023-03-26T08:48:34.625Z,90.0038
2023-03-26T08:49:36.823Z,90.5505
2023-03-26T08:50:38.977Z,89.6168
2023-03-26T08:51:41.103Z,90.5575
2023-03-26T08:52:43.332Z,91.5073
2023-03-26T08:53:45.467Z,90.2496
2023-03-26T08:54:47.695Z,89.8149
2023-03-26T08:55:49.832Z,90.4373
2023-03-26T08:57:54.074Z,90.2332
2023-03-26T08:58:56.286Z,90.4580
2023-03-26T08:59:59.278Z,89.9066
2023-03-26T09:00:58.489Z,89.8983
2023-03-26T09:02:00.735Z,90.5119
2023-03-26T09:03:02.900Z,89.7162
2023-03-26T09:04:05.108Z,89.3580
2023-03-26T09:05:07.405Z,90.1810
2023-03-26T09:06:09.515Z,91.6290
2023-03-26T09:07:11.738Z,91.0719
2023-03-26T09:09:19.153Z,90.7873
2023-03-26T09:10:17.419Z,91.2305
2023-03-26T09:11:19.627Z,91.1595
2023-03-26T09:12:22.842Z,91.1985
2023-03-26T09:13:23.208Z,91.9282
2023-03-26T09:14:25.373Z,91.3181
2023-03-26T09:15:27.534Z,90.1668
2023-03-26T09:16:29.762Z,90.0896
2023-03-26T09:18:33.959Z,87.3540
2023-03-26T09:19:36.142Z,89.2961
2023-03-26T09:20:38.422Z,90.7582
2023-03-26T09:22:42.683Z,90.3825
2023-03-26T09:23:44.865Z,89.8295
2023-03-26T09:25:49.065Z,88.2721
2023-03-26T09:26:51.277Z,85.4794
2023-03-26T09:27:53.441Z,87.7267
2023-03-26T09:28:55.613Z,87.5823
2023-03-26T09:29:57.772Z,86.3702
2023-03-26T09:30:59.976Z,85.9454
2023-03-26T09:32:02.133Z,86.0349
2023-03-26T09:33:04.324Z,86.1831
2023-03-26T09:34:06.504Z,87.0911
2023-03-26T09:35:08.648Z,87.3632
2023-03-26T09:36:11.225Z,86.9451
2023-03-26T09:37:13.442Z,86.9479
2023-03-26T09:38:15.632Z,86.8529
2023-03-26T09:39:17.802Z,86.7771
2023-03-26T09:40:19.990Z,86.1014
2023-03-26T09:41:22.200Z,85.9383
2023-03-26T09:42:24.394Z,85.8861
2023-03-26T09:44:28.670Z,84.7827
2023-03-26T09:45:30.948Z,85.3662
2023-03-26T09:47:35.182Z,85.4220
2023-03-26T09:48:37.413Z,85.7888
2023-03-26T09:49:39.557Z,84.7715
2023-03-26T09:50:41.778Z,84.4687
2023-03-26T09:51:44.038Z,84.5205
2023-03-26T09:52:46.196Z,83.3461
2023-03-26T09:53:48.355Z,83.8271
2023-03-26T09:54:50.585Z,83.9677
2023-03-26T09:56:54.876Z,82.8022
2023-03-26T09:57:56.994Z,81.2086
2023-03-26T09:58:59.193Z,79.6866
2023-03-26T10:00:01.367Z,80.0256
2023-03-26T10:01:03.636Z,80.8533
2023-03-26T10:02:05.894Z,81.8202
2023-03-26T10:03:08.148Z,81.2318
2023-03-26T10:04:10.373Z,81.1734
2023-03-26T10:05:12.597Z,82.0340
2023-03-26T10:06:14.856Z,81.4510
2023-03-26T10:07:17.020Z,80.2156
2023-03-26T10:08:19.287Z,81.3041
2023-03-26T10:09:21.439Z,81.6178
2023-03-26T10:10:23.654Z,81.3542
2023-03-26T10:11:25.814Z,80.8796
2023-03-26T10:12:28.206Z,81.0176
2023-03-26T10:13:30.497Z,81.2161
2023-03-26T10:14:32.658Z,81.1891
2023-03-26T10:15:34.961Z,80.2957
2023-03-26T10:16:37.301Z,80.1207
2023-03-26T10:17:39.569Z,79.3687
2023-03-26T10:18:41.713Z,80.1748
2023-03-26T10:19:44.236Z,79.8608
2023-03-26T10:20:46.527Z,78.5331
2023-03-26T10:21:48.718Z,78.2722
2023-03-26T10:22:50.977Z,78.1054
2023-03-26T10:23:53.120Z,77.8183
2023-03-26T10:24:55.363Z,78.4603
2023-03-26T10:25:57.673Z,78.9264
2023-03-26T10:27:09.113Z,78.8208
2023-03-26T10:28:03.589Z,79.0792
2023-03-26T10:29:05.824Z,78.9337
2023-03-26T10:30:08.014Z,78.6320
2023-03-26T10:31:10.179Z,78.5524
2023-03-26T10:32:12.452Z,77.7322
2023-03-26T10:33:14.891Z,78.3177
2023-03-26T10:34:28.659Z,78.2708
2023-03-26T10:35:20.833Z,78.1572
2023-03-26T10:37:25.153Z,77.5045
2023-03-26T10:38:27.385Z,77.6661
2023-03-26T10:39:37.216Z,77.7394
2023-03-26T10:40:33.265Z,77.8813
2023-03-26T10:41:35.498Z,78.5701
2023-03-26T10:42:37.641Z,78.4637
2023-03-26T10:43:39.829Z,78.5306
2023-03-26T10:44:42.048Z,78.8864
2023-03-26T10:45:44.340Z,78.4201
2023-03-26T10:46:46.715Z,78.3522
2023-03-26T10:47:49.129Z,79.2447
2023-03-26T10:49:53.310Z,78.3762
2023-03-26T10:50:55.785Z,77.0771
2023-03-26T10:51:58.872Z,76.2000
2023-03-26T10:53:01.083Z,76.2788
2023-03-26T10:54:03.500Z,76.0848
2023-03-26T10:55:05.695Z,77.4913
2023-03-26T10:56:07.948Z,77.5862
2023-03-26T10:57:10.317Z,77.2750
2023-03-26T10:58:12.494Z,77.1269
2023-03-26T10:59:15.057Z,76.7423
2023-03-26T11:00:17.516Z,75.2867
2023-03-26T11:01:19.790Z,74.9065
2023-03-26T11:02:29.299Z,75.5677
2023-03-26T11:03:25.937Z,75.6189
2023-03-26T11:04:28.082Z,75.4528
2023-03-26T11:05:30.366Z,75.4112
2023-03-26T11:06:32.629Z,75.7219
2023-03-26T11:07:34.821Z,75.6847
2023-03-26T11:08:36.950Z,75.1842
2023-03-26T11:09:39.207Z,74.0476
2023-03-26T11:10:41.411Z,73.2650
2023-03-26T11:11:43.932Z,74.0263
2023-03-26T11:12:46.180Z,74.5428
2023-03-26T11:13:48.361Z,74.7759
2023-03-26T11:14:50.628Z,75.3366
2023-03-26T11:15:53.046Z,74.7132
2023-03-26T11:16:55.387Z,73.1656
2023-03-26T11:17:57.614Z,72.2320
2023-03-26T11:18:59.754Z,71.3746
2023-03-26T11:20:01.953Z,71.2691
2023-03-26T11:21:19.106Z,70.9991
2023-03-26T11:22:07.964Z,72.1566
2023-03-26T11:23:10.100Z,69.7915
2023-03-26T11:24:13.264Z,70.0715
2023-03-26T11:25:15.418Z,70.1820
2023-03-26T11:26:17.690Z,71.1147
2023-03-26T11:27:21.323Z,70.0173
2023-03-26T11:28:21.140Z,70.0789
2023-03-26T11:29:32.297Z,70.6103
2023-03-26T11:30:26.917Z,70.6243
2023-03-26T11:31:29.243Z,70.8749
2023-03-26T11:32:31.513Z,70.6084
2023-03-26T11:33:33.619Z,70.3986
2023-03-26T11:34:35.822Z,69.6131
2023-03-26T11:35:40.625Z,69.9432
2023-03-26T11:36:39.150Z,68.3921
2023-03-26T11:37:41.324Z,69.3066
2023-03-26T11:39:45.581Z,70.2827
2023-03-26T11:40:47.680Z,69.7622
2023-03-26T11:41:49.880Z,70.1802
2023-03-26T11:42:52.045Z,68.9919
2023-03-26T11:43:54.368Z,68.2980
2023-03-26T11:44:56.794Z,68.7739
2023-03-26T11:45:59.131Z,67.5643
2023-03-26T11:47:01.370Z,68.3326
2023-03-26T11:48:03.571Z,68.3328
2023-03-26T11:49:05.719Z,69.1117
2023-03-26T11:52:12.000Z,67.8216
2023-03-26T11:53:14.183Z,67.7982
2023-03-26T11:54:16.405Z,67.7110
2023-03-26T11:55:18.608Z,67.5141
2023-03-26T11:56:20.837Z,66.7623
2023-03-26T11:57:23.067Z,67.0293
2023-03-26T11:58:25.261Z,65.2973
2023-03-26T11:59:27.421Z,65.9900
2023-03-26T12:01:31.792Z,65.3325
2023-03-26T12:02:34.156Z,64.6106
2023-03-26T12:04:38.524Z,63.7831
2023-03-26T12:05:40.692Z,63.4506
2023-03-26T12:06:42.794Z,65.4930
2023-03-26T12:07:44.913Z,65.4117
2023-03-26T12:08:47.093Z,65.3513
2023-03-26T12:09:49.246Z,66.3274
2023-03-26T12:10:51.427Z,65.5234
2023-03-26T12:11:53.635Z,66.1774
2023-03-26T12:12:55.822Z,66.5291
2023-03-26T12:13:58.046Z,64.3444
2023-03-26T12:15:00.204Z,64.8985
2023-03-26T12:16:02.357Z,65.1519
2023-03-26T12:17:04.623Z,64.9840
2023-03-26T12:18:27.757Z,64.1861
2023-03-26T12:19:07.848Z,62.2076
2023-03-26T12:20:09.962Z,62.0986
2023-03-26T12:21:12.248Z,62.7426
2023-03-26T12:22:14.409Z,62.6241
2023-03-26T12:23:16.707Z,62.3699
2023-03-26T12:24:18.966Z,63.0670
2023-03-26T12:25:21.181Z,63.4340
2023-03-26T12:26:23.357Z,63.8456
2023-03-26T12:27:25.511Z,63.5282
2023-03-26T12:28:27.660Z,63.4623
2023-03-26T12:29:29.807Z,64.2427
2023-03-26T12:30:32.068Z,65.1102
2023-03-26T12:31:34.270Z,64.8252
2023-03-26T12:32:45.868Z,67.6244
2023-03-26T12:33:40.220Z,71.1418
2023-03-26T12:34:42.434Z,72.0288
2023-03-26T12:35:44.695Z,73.2849
2023-03-26T12:36:46.950Z,72.2013
2023-03-26T12:39:16.731Z,69.9966
2023-03-26T12:40:09.271Z,70.2294
2023-03-26T12:40:58.524Z,68.7768
2023-03-26T12:47:56.670Z,66.0519
2023-03-26T12:47:58.583Z,65.9572
2023-03-26T12:48:16.177Z,65.9005
2023-03-26T12:49:18.934Z,65.4676
2023-03-26T12:50:34.436Z,62.8760
2023-03-26T12:51:24.900Z,59.2219
2023-03-26T12:52:27.053Z,57.3691
2023-03-26T12:54:31.285Z,55.5701
2023-03-26T12:55:33.443Z,55.4895
2023-03-26T12:57:37.991Z,56.2894
2023-03-26T12:59:42.148Z,55.4835
2023-03-26T13:00:44.259Z,55.9592
2023-03-26T13:01:46.347Z,56.3373
2023-03-26T13:02:48.611Z,56.0232
2023-03-26T13:03:52.824Z,58.6623
2023-03-26T13:05:05.050Z,60.4780
2023-03-26T13:05:58.580Z,58.7025
2023-03-26T13:07:02.268Z,60.5517
2023-03-26T13:08:04.722Z,63.4559
2023-03-26T13:09:06.922Z,64.7380
2023-03-26T13:10:09.216Z,64.5763
2023-03-26T13:11:11.464Z,64.8383
2023-03-26T13:12:13.758Z,65.3016
2023-03-26T13:13:15.881Z,64.7236
2023-03-26T13:14:18.113Z,64.5491
2023-03-26T13:15:20.326Z,64.2687
2023-03-26T13:16:22.505Z,63.0129
2023-03-26T13:17:24.893Z,63.8301
2023-03-26T13:18:27.038Z,64.3746
2023-03-26T13:19:29.221Z,65.3906
2023-03-26T13:20:31.430Z,64.9332
2023-03-26T13:21:33.630Z,63.6164
2023-03-26T13:22:35.807Z,65.2330
2023-03-26T13:23:37.937Z,62.2895
2023-03-26T13:24:40.233Z,59.2325
2023-03-26T13:25:42.333Z,57.9190
2023-03-26T13:26:44.484Z,57.0309
2023-03-26T13:27:46.586Z,58.5921
2023-03-26T13:30:52.918Z,63.0993
2023-03-26T13:31:55.352Z,64.6673
2023-03-26T13:32:57.573Z,62.1354
2023-03-26T13:33:59.765Z,62.6796
2023-03-26T13:35:01.966Z,64.2325
2023-03-26T13:36:21.768Z,65.7585
2023-03-26T13:37:07.746Z,64.5994
2023-03-26T13:39:12.002Z,61.5436
2023-03-26T13:40:14.193Z,59.7474
2023-03-26T13:42:18.516Z,62.1922
2023-03-26T13:43:20.626Z,58.9679
2023-03-26T13:44:22.806Z,59.6003
2023-03-26T13:45:24.945Z,60.3397